sensor_id;sensor_type;location;lat;lon;timestamp;P1;durP1;ratioP1;P2;durP2;ratioP2
75766;SDS011;64378;55.596;13.014;2023-04-07T00:01:52;487.30;;;256.67;;
75766;SDS011;64378;55.596;13.014;2023-04-07T00:04:17;489.63;;;257.33;;
75766;SDS011;64378;55.596;13.014;2023-04-07T00:06:43;497.63;;;262.48;;
75766;SDS011;64378;55.596;13.014;2023-04-07T00:09:09;463.23;;;241.82;;
75766;SDS011;64378;55.596;13.014;2023-04-07T00:11:35;479.00;;;251.45;;
75766;SDS011;64378;55.596;13.014;2023-04-07T00:14:01;487.98;;;256.42;;
75766;SDS011;64378;55.596;13.014;2023-04-07T00:16:26;489.13;;;257.10;;
75766;SDS011;64378;55.596;13.014;2023-04-07T00:18:51;491.73;;;259.03;;
75766;SDS011;64378;55.596;13.014;2023-04-07T00:21:17;472.10;;;245.50;;
75766;SDS011;64378;55.596;13.014;2023-04-07T00:23:42;480.93;;;251.77;;
75766;SDS011;64378;55.596;13.014;2023-04-07T00:26:07;489.73;;;257.43;;
75766;SDS011;64378;55.596;13.014;2023-04-07T00:28:33;498.37;;;263.50;;
75766;SDS011;64378;55.596;13.014;2023-04-07T00:30:58;505.40;;;267.07;;
75766;SDS011;64378;55.596;13.014;2023-04-07T00:33:24;510.38;;;271.08;;
75766;SDS011;64378;55.596;13.014;2023-04-07T00:35:50;509.87;;;270.20;;
75766;SDS011;64378;55.596;13.014;2023-04-07T00:38:15;509.35;;;269.65;;
75766;SDS011;64378;55.596;13.014;2023-04-07T00:40:41;514.00;;;272.77;;
75766;SDS011;64378;55.596;13.014;2023-04-07T00:43:06;519.33;;;275.90;;
75766;SDS011;64378;55.596;13.014;2023-04-07T00:45:31;519.63;;;276.63;;
75766;SDS011;64378;55.596;13.014;2023-04-07T00:47:57;482.90;;;255.33;;
75766;SDS011;64378;55.596;13.014;2023-04-07T00:50:22;482.30;;;255.80;;
75766;SDS011;64378;55.596;13.014;2023-04-07T00:52:48;503.70;;;269.10;;
75766;SDS011;64378;55.596;13.014;2023-04-07T00:55:15;512.30;;;273.70;;
75766;SDS011;64378;55.596;13.014;2023-04-07T00:57:40;514.33;;;275.43;;
75766;SDS011;64378;55.596;13.014;2023-04-07T01:00:06;493.08;;;261.90;;
75766;SDS011;64378;55.596;13.014;2023-04-07T01:02:36;489.38;;;267.23;;
75766;SDS011;64378;55.596;13.014;2023-04-07T01:11:07;512.05;;;278.50;;
75766;SDS011;64378;55.596;13.014;2023-04-07T01:13:47;512.22;;;278.65;;
75766;SDS011;64378;55.596;13.014;2023-04-07T01:16:30;510.73;;;276.70;;
75766;SDS011;64378;55.596;13.014;2023-04-07T01:22:14;498.13;;;269.15;;
75766;SDS011;64378;55.596;13.014;2023-04-07T01:24:52;503.48;;;276.23;;
75766;SDS011;64378;55.596;13.014;2023-04-07T01:30:07;521.50;;;289.27;;
75766;SDS011;64378;55.596;13.014;2023-04-07T01:32:35;494.90;;;271.20;;
75766;SDS011;64378;55.596;13.014;2023-04-07T01:35:03;506.63;;;278.25;;
75766;SDS011;64378;55.596;13.014;2023-04-07T01:37:34;510.80;;;281.58;;
75766;SDS011;64378;55.596;13.014;2023-04-07T01:40:02;501.43;;;273.37;;
75766;SDS011;64378;55.596;13.014;2023-04-07T01:42:29;479.90;;;260.08;;
75766;SDS011;64378;55.596;13.014;2023-04-07T01:44:57;481.55;;;262.38;;
75766;SDS011;64378;55.596;13.014;2023-04-07T01:47:25;473.10;;;258.95;;
75766;SDS011;64378;55.596;13.014;2023-04-07T01:49:55;464.50;;;253.73;;
75766;SDS011;64378;55.596;13.014;2023-04-07T01:52:22;486.27;;;270.40;;
75766;SDS011;64378;55.596;13.014;2023-04-07T01:54:48;491.60;;;274.67;;
75766;SDS011;64378;55.596;13.014;2023-04-07T01:57:14;499.48;;;280.95;;
75766;SDS011;64378;55.596;13.014;2023-04-07T01:59:40;506.73;;;285.67;;
75766;SDS011;64378;55.596;13.014;2023-04-07T02:02:05;511.23;;;288.53;;
75766;SDS011;64378;55.596;13.014;2023-04-07T02:04:34;514.30;;;292.37;;
75766;SDS011;64378;55.596;13.014;2023-04-07T02:07:08;513.20;;;292.08;;
75766;SDS011;64378;55.596;13.014;2023-04-07T02:09:39;524.53;;;302.27;;
75766;SDS011;64378;55.596;13.014;2023-04-07T02:12:08;528.97;;;306.40;;
75766;SDS011;64378;55.596;13.014;2023-04-07T02:14:36;533.13;;;308.65;;
75766;SDS011;64378;55.596;13.014;2023-04-07T02:17:03;539.37;;;312.70;;
75766;SDS011;64378;55.596;13.014;2023-04-07T02:19:29;539.95;;;313.95;;
75766;SDS011;64378;55.596;13.014;2023-04-07T02:21:56;544.72;;;319.13;;
75766;SDS011;64378;55.596;13.014;2023-04-07T02:24:25;520.42;;;303.40;;
75766;SDS011;64378;55.596;13.014;2023-04-07T02:26:50;499.53;;;304.47;;
75766;SDS011;64378;55.596;13.014;2023-04-07T02:29:16;495.60;;;300.33;;
75766;SDS011;64378;55.596;13.014;2023-04-07T02:31:41;352.40;;;326.20;;
75766;SDS011;64378;55.596;13.014;2023-04-07T02:34:06;2.60;;;0.80;;
75766;SDS011;64378;55.596;13.014;2023-04-07T02:36:32;2.58;;;0.80;;
75766;SDS011;64378;55.596;13.014;2023-04-07T02:38:57;2.90;;;0.80;;
75766;SDS011;64378;55.596;13.014;2023-04-07T02:41:22;2.60;;;0.80;;
75766;SDS011;64378;55.596;13.014;2023-04-07T02:43:48;2.87;;;0.80;;
75766;SDS011;64378;55.596;13.014;2023-04-07T02:46:13;2.53;;;0.80;;
75766;SDS011;64378;55.596;13.014;2023-04-07T02:48:39;2.23;;;0.80;;
75766;SDS011;64378;55.596;13.014;2023-04-07T02:51:04;2.45;;;0.80;;
75766;SDS011;64378;55.596;13.014;2023-04-07T02:53:30;2.60;;;0.70;;
75766;SDS011;64378;55.596;13.014;2023-04-07T02:55:55;3.10;;;0.90;;
75766;SDS011;64378;55.596;13.014;2023-04-07T02:58:21;2.60;;;0.77;;
75766;SDS011;64378;55.596;13.014;2023-04-07T03:00:49;1.90;;;0.60;;
75766;SDS011;64378;55.596;13.014;2023-04-07T03:03:15;2.60;;;0.63;;
75766;SDS011;64378;55.596;13.014;2023-04-07T03:05:40;2.53;;;0.80;;
75766;SDS011;64378;55.596;13.014;2023-04-07T03:08:06;3.13;;;0.80;;
75766;SDS011;64378;55.596;13.014;2023-04-07T03:10:31;3.20;;;0.80;;
75766;SDS011;64378;55.596;13.014;2023-04-07T03:12:56;2.23;;;0.70;;
75766;SDS011;64378;55.596;13.014;2023-04-07T03:15:22;2.47;;;0.80;;
75766;SDS011;64378;55.596;13.014;2023-04-07T03:17:47;2.20;;;0.70;;
75766;SDS011;64378;55.596;13.014;2023-04-07T03:20:13;2.85;;;0.80;;
75766;SDS011;64378;55.596;13.014;2023-04-07T03:22:38;2.00;;;0.60;;
75766;SDS011;64378;55.596;13.014;2023-04-07T03:25:04;2.63;;;0.80;;
75766;SDS011;64378;55.596;13.014;2023-04-07T03:27:29;2.63;;;0.73;;
75766;SDS011;64378;55.596;13.014;2023-04-07T03:29:55;2.03;;;0.80;;
75766;SDS011;64378;55.596;13.014;2023-04-07T03:32:21;2.00;;;0.80;;
75766;SDS011;64378;55.596;13.014;2023-04-07T03:34:46;2.20;;;0.77;;
75766;SDS011;64378;55.596;13.014;2023-04-07T03:37:12;2.43;;;0.90;;
75766;SDS011;64378;55.596;13.014;2023-04-07T03:39:37;2.95;;;0.70;;
75766;SDS011;64378;55.596;13.014;2023-04-07T03:42:03;4.43;;;1.23;;
75766;SDS011;64378;55.596;13.014;2023-04-07T03:44:29;2.23;;;0.70;;
75766;SDS011;64378;55.596;13.014;2023-04-07T03:46:54;2.67;;;0.80;;
75766;SDS011;64378;55.596;13.014;2023-04-07T03:49:20;3.03;;;0.70;;
75766;SDS011;64378;55.596;13.014;2023-04-07T03:51:46;2.72;;;0.80;;
75766;SDS011;64378;55.596;13.014;2023-04-07T03:54:11;2.87;;;0.90;;
75766;SDS011;64378;55.596;13.014;2023-04-07T03:56:36;2.60;;;0.90;;
75766;SDS011;64378;55.596;13.014;2023-04-07T03:59:02;1.60;;;0.60;;
75766;SDS011;64378;55.596;13.014;2023-04-07T04:01:27;3.20;;;1.00;;
75766;SDS011;64378;55.596;13.014;2023-04-07T04:03:53;2.20;;;0.80;;
75766;SDS011;64378;55.596;13.014;2023-04-07T04:06:18;3.47;;;0.85;;
75766;SDS011;64378;55.596;13.014;2023-04-07T04:08:43;2.83;;;0.80;;
75766;SDS011;64378;55.596;13.014;2023-04-07T04:11:09;2.57;;;0.80;;
75766;SDS011;64378;55.596;13.014;2023-04-07T04:13:34;3.13;;;0.87;;
75766;SDS011;64378;55.596;13.014;2023-04-07T04:16:00;2.67;;;0.80;;
75766;SDS011;64378;55.596;13.014;2023-04-07T04:18:26;2.83;;;0.73;;
75766;SDS011;64378;55.596;13.014;2023-04-07T04:20:51;2.53;;;0.80;;
75766;SDS011;64378;55.596;13.014;2023-04-07T04:23:16;2.17;;;0.83;;
75766;SDS011;64378;55.596;13.014;2023-04-07T04:25:42;2.40;;;0.77;;
75766;SDS011;64378;55.596;13.014;2023-04-07T04:28:07;2.57;;;0.90;;
75766;SDS011;64378;55.596;13.014;2023-04-07T04:30:32;2.60;;;0.80;;
75766;SDS011;64378;55.596;13.014;2023-04-07T04:32:58;3.10;;;1.10;;
75766;SDS011;64378;55.596;13.014;2023-04-07T04:35:23;2.67;;;0.80;;
75766;SDS011;64378;55.596;13.014;2023-04-07T04:37:50;1.63;;;0.63;;
75766;SDS011;64378;55.596;13.014;2023-04-07T04:40:15;2.77;;;1.00;;
75766;SDS011;64378;55.596;13.014;2023-04-07T04:42:40;2.00;;;0.60;;
75766;SDS011;64378;55.596;13.014;2023-04-07T04:45:06;2.97;;;0.77;;
75766;SDS011;64378;55.596;13.014;2023-04-07T04:47:32;1.92;;;0.68;;
75766;SDS011;64378;55.596;13.014;2023-04-07T04:49:57;2.17;;;0.80;;
75766;SDS011;64378;55.596;13.014;2023-04-07T04:52:23;2.10;;;0.70;;
75766;SDS011;64378;55.596;13.014;2023-04-07T04:54:48;2.17;;;0.77;;
75766;SDS011;64378;55.596;13.014;2023-04-07T04:57:13;2.93;;;0.77;;
75766;SDS011;64378;55.596;13.014;2023-04-07T04:59:40;2.63;;;0.80;;
75766;SDS011;64378;55.596;13.014;2023-04-07T05:02:06;3.00;;;0.90;;
75766;SDS011;64378;55.596;13.014;2023-04-07T05:04:31;2.00;;;0.70;;
75766;SDS011;64378;55.596;13.014;2023-04-07T05:06:57;2.60;;;0.80;;
75766;SDS011;64378;55.596;13.014;2023-04-07T05:09:22;3.43;;;0.90;;
75766;SDS011;64378;55.596;13.014;2023-04-07T05:11:48;2.50;;;0.80;;
75766;SDS011;64378;55.596;13.014;2023-04-07T05:14:13;2.73;;;0.80;;
75766;SDS011;64378;55.596;13.014;2023-04-07T05:16:38;1.97;;;0.63;;
75766;SDS011;64378;55.596;13.014;2023-04-07T05:19:04;1.93;;;0.70;;
75766;SDS011;64378;55.596;13.014;2023-04-07T05:21:29;2.70;;;0.80;;
75766;SDS011;64378;55.596;13.014;2023-04-07T05:23:55;2.75;;;0.80;;
75766;SDS011;64378;55.596;13.014;2023-04-07T05:26:20;1.63;;;0.70;;
75766;SDS011;64378;55.596;13.014;2023-04-07T05:28:46;2.43;;;0.80;;
75766;SDS011;64378;55.596;13.014;2023-04-07T05:31:11;1.77;;;0.73;;
75766;SDS011;64378;55.596;13.014;2023-04-07T05:33:37;2.45;;;0.60;;
75766;SDS011;64378;55.596;13.014;2023-04-07T05:36:02;2.42;;;0.68;;
75766;SDS011;64378;55.596;13.014;2023-04-07T05:38:28;2.63;;;0.80;;
75766;SDS011;64378;55.596;13.014;2023-04-07T05:40:53;2.30;;;0.70;;
75766;SDS011;64378;55.596;13.014;2023-04-07T05:43:18;1.87;;;0.80;;
75766;SDS011;64378;55.596;13.014;2023-04-07T05:45:44;2.13;;;0.73;;
75766;SDS011;64378;55.596;13.014;2023-04-07T05:48:09;2.77;;;0.80;;
75766;SDS011;64378;55.596;13.014;2023-04-07T05:50:35;2.10;;;0.77;;
75766;SDS011;64378;55.596;13.014;2023-04-07T05:53:01;2.53;;;0.90;;
75766;SDS011;64378;55.596;13.014;2023-04-07T05:55:26;2.13;;;0.87;;
75766;SDS011;64378;55.596;13.014;2023-04-07T05:57:51;1.77;;;0.70;;
75766;SDS011;64378;55.596;13.014;2023-04-07T06:00:17;1.80;;;0.60;;
75766;SDS011;64378;55.596;13.014;2023-04-07T06:02:43;2.70;;;0.80;;
75766;SDS011;64378;55.596;13.014;2023-04-07T06:05:09;2.33;;;0.70;;
75766;SDS011;64378;55.596;13.014;2023-04-07T06:07:35;2.15;;;0.80;;
75766;SDS011;64378;55.596;13.014;2023-04-07T06:10:00;1.63;;;0.60;;
75766;SDS011;64378;55.596;13.014;2023-04-07T06:12:25;2.30;;;0.60;;
75766;SDS011;64378;55.596;13.014;2023-04-07T06:14:52;1.93;;;0.80;;
75766;SDS011;64378;55.596;13.014;2023-04-07T06:17:18;2.33;;;0.80;;
75766;SDS011;64378;55.596;13.014;2023-04-07T06:19:43;1.93;;;0.80;;
75766;SDS011;64378;55.596;13.014;2023-04-07T06:22:09;1.77;;;0.70;;
75766;SDS011;64378;55.596;13.014;2023-04-07T06:24:35;3.05;;;0.90;;
75766;SDS011;64378;55.596;13.014;2023-04-07T06:27:00;2.93;;;0.80;;
75766;SDS011;64378;55.596;13.014;2023-04-07T06:29:27;2.22;;;0.77;;
75766;SDS011;64378;55.596;13.014;2023-04-07T06:31:53;2.67;;;0.87;;
75766;SDS011;64378;55.596;13.014;2023-04-07T06:34:18;2.20;;;0.80;;
75766;SDS011;64378;55.596;13.014;2023-04-07T06:36:44;2.17;;;0.80;;
75766;SDS011;64378;55.596;13.014;2023-04-07T06:39:09;3.28;;;0.80;;
75766;SDS011;64378;55.596;13.014;2023-04-07T06:41:35;3.40;;;0.90;;
75766;SDS011;64378;55.596;13.014;2023-04-07T06:44:02;2.80;;;0.87;;
75766;SDS011;64378;55.596;13.014;2023-04-07T06:46:28;2.25;;;0.80;;
75766;SDS011;64378;55.596;13.014;2023-04-07T06:48:53;2.47;;;0.87;;
75766;SDS011;64378;55.596;13.014;2023-04-07T06:51:19;2.77;;;0.90;;
75766;SDS011;64378;55.596;13.014;2023-04-07T06:53:44;2.60;;;0.80;;
75766;SDS011;64378;55.596;13.014;2023-04-07T06:56:12;3.00;;;0.80;;
75766;SDS011;64378;55.596;13.014;2023-04-07T06:58:38;3.17;;;0.90;;
75766;SDS011;64378;55.596;13.014;2023-04-07T07:01:03;2.22;;;0.73;;
75766;SDS011;64378;55.596;13.014;2023-04-07T07:03:30;2.55;;;0.70;;
75766;SDS011;64378;55.596;13.014;2023-04-07T07:05:59;2.08;;;0.80;;
75766;SDS011;64378;55.596;13.014;2023-04-07T07:08:25;1.77;;;0.60;;
75766;SDS011;64378;55.596;13.014;2023-04-07T07:10:51;2.60;;;0.90;;
75766;SDS011;64378;55.596;13.014;2023-04-07T07:13:18;2.63;;;0.70;;
75766;SDS011;64378;55.596;13.014;2023-04-07T07:15:44;3.05;;;0.80;;
75766;SDS011;64378;55.596;13.014;2023-04-07T07:18:10;2.77;;;0.90;;
75766;SDS011;64378;55.596;13.014;2023-04-07T07:20:36;2.58;;;0.80;;
75766;SDS011;64378;55.596;13.014;2023-04-07T07:23:01;2.63;;;0.80;;
75766;SDS011;64378;55.596;13.014;2023-04-07T07:25:27;2.40;;;0.70;;
75766;SDS011;64378;55.596;13.014;2023-04-07T07:27:52;2.10;;;0.80;;
75766;SDS011;64378;55.596;13.014;2023-04-07T07:30:19;2.40;;;0.70;;
75766;SDS011;64378;55.596;13.014;2023-04-07T07:32:46;2.53;;;0.80;;
75766;SDS011;64378;55.596;13.014;2023-04-07T07:35:11;2.70;;;0.80;;
75766;SDS011;64378;55.596;13.014;2023-04-07T07:37:36;2.93;;;0.93;;
75766;SDS011;64378;55.596;13.014;2023-04-07T07:40:02;2.43;;;0.83;;
75766;SDS011;64378;55.596;13.014;2023-04-07T07:42:28;2.67;;;0.90;;
75766;SDS011;64378;55.596;13.014;2023-04-07T07:44:55;2.92;;;0.90;;
75766;SDS011;64378;55.596;13.014;2023-04-07T07:47:20;3.53;;;1.00;;
75766;SDS011;64378;55.596;13.014;2023-04-07T07:49:46;2.37;;;0.80;;
75766;SDS011;64378;55.596;13.014;2023-04-07T07:52:11;2.13;;;0.83;;
75766;SDS011;64378;55.596;13.014;2023-04-07T07:54:36;2.30;;;0.80;;
75766;SDS011;64378;55.596;13.014;2023-04-07T07:57:02;2.78;;;0.90;;
75766;SDS011;64378;55.596;13.014;2023-04-07T07:59:28;3.00;;;0.90;;
75766;SDS011;64378;55.596;13.014;2023-04-07T08:01:54;2.73;;;0.90;;
75766;SDS011;64378;55.596;13.014;2023-04-07T08:04:20;3.10;;;0.80;;
75766;SDS011;64378;55.596;13.014;2023-04-07T08:06:47;2.13;;;0.70;;
75766;SDS011;64378;55.596;13.014;2023-04-07T08:09:13;3.33;;;0.90;;
75766;SDS011;64378;55.596;13.014;2023-04-07T08:11:39;2.35;;;0.90;;
75766;SDS011;64378;55.596;13.014;2023-04-07T08:14:05;2.03;;;0.70;;
75766;SDS011;64378;55.596;13.014;2023-04-07T08:16:31;3.33;;;0.90;;
75766;SDS011;64378;55.596;13.014;2023-04-07T08:18:56;2.53;;;0.70;;
75766;SDS011;64378;55.596;13.014;2023-04-07T08:21:22;2.88;;;0.90;;
75766;SDS011;64378;55.596;13.014;2023-04-07T08:23:47;2.53;;;0.73;;
75766;SDS011;64378;55.596;13.014;2023-04-07T08:26:12;3.07;;;0.80;;
75766;SDS011;64378;55.596;13.014;2023-04-07T08:28:38;2.57;;;1.00;;
75766;SDS011;64378;55.596;13.014;2023-04-07T08:31:03;2.10;;;0.70;;
75766;SDS011;64378;55.596;13.014;2023-04-07T08:33:29;2.73;;;0.90;;
75766;SDS011;64378;55.596;13.014;2023-04-07T08:35:55;2.65;;;0.80;;
75766;SDS011;64378;55.596;13.014;2023-04-07T08:38:20;2.20;;;0.80;;
75766;SDS011;64378;55.596;13.014;2023-04-07T08:40:46;1.83;;;0.77;;
75766;SDS011;64378;55.596;13.014;2023-04-07T08:43:16;2.78;;;0.80;;
75766;SDS011;64378;55.596;13.014;2023-04-07T08:45:44;2.10;;;0.80;;
75766;SDS011;64378;55.596;13.014;2023-04-07T08:48:14;2.63;;;0.65;;
75766;SDS011;64378;55.596;13.014;2023-04-07T08:50:43;2.38;;;0.70;;
75766;SDS011;64378;55.596;13.014;2023-04-07T08:53:09;3.03;;;0.73;;
75766;SDS011;64378;55.596;13.014;2023-04-07T08:55:39;2.28;;;0.80;;
75766;SDS011;64378;55.596;13.014;2023-04-07T08:58:05;2.30;;;0.90;;
75766;SDS011;64378;55.596;13.014;2023-04-07T09:00:36;3.05;;;0.77;;
75766;SDS011;64378;55.596;13.014;2023-04-07T09:03:03;2.30;;;0.77;;
75766;SDS011;64378;55.596;13.014;2023-04-07T09:05:30;2.08;;;0.70;;
75766;SDS011;64378;55.596;13.014;2023-04-07T09:07:56;2.47;;;0.90;;
75766;SDS011;64378;55.596;13.014;2023-04-07T09:10:21;2.30;;;0.77;;
75766;SDS011;64378;55.596;13.014;2023-04-07T09:12:47;2.10;;;0.70;;
75766;SDS011;64378;55.596;13.014;2023-04-07T09:15:13;1.63;;;0.70;;
75766;SDS011;64378;55.596;13.014;2023-04-07T09:17:38;2.43;;;0.70;;
75766;SDS011;64378;55.596;13.014;2023-04-07T09:20:04;2.20;;;0.70;;
75766;SDS011;64378;55.596;13.014;2023-04-07T09:22:37;1.90;;;0.73;;
75766;SDS011;64378;55.596;13.014;2023-04-07T09:27:35;2.22;;;0.75;;
75766;SDS011;64378;55.596;13.014;2023-04-07T09:30:09;2.13;;;0.70;;
75766;SDS011;64378;55.596;13.014;2023-04-07T09:32:36;2.20;;;0.70;;
75766;SDS011;64378;55.596;13.014;2023-04-07T09:35:02;2.70;;;0.70;;
75766;SDS011;64378;55.596;13.014;2023-04-07T09:37:28;2.78;;;0.80;;
75766;SDS011;64378;55.596;13.014;2023-04-07T09:39:53;1.50;;;0.60;;
75766;SDS011;64378;55.596;13.014;2023-04-07T09:42:19;2.07;;;0.60;;
75766;SDS011;64378;55.596;13.014;2023-04-07T09:44:45;2.90;;;0.90;;
75766;SDS011;64378;55.596;13.014;2023-04-07T09:47:11;2.67;;;0.70;;
75766;SDS011;64378;55.596;13.014;2023-04-07T09:49:47;2.67;;;0.67;;
75766;SDS011;64378;55.596;13.014;2023-04-07T09:52:16;2.30;;;0.90;;
75766;SDS011;64378;55.596;13.014;2023-04-07T09:54:43;1.83;;;0.70;;
75766;SDS011;64378;55.596;13.014;2023-04-07T09:57:11;2.20;;;0.65;;
75766;SDS011;64378;55.596;13.014;2023-04-07T09:59:38;2.22;;;0.50;;
75766;SDS011;64378;55.596;13.014;2023-04-07T10:02:06;1.90;;;0.60;;
75766;SDS011;64378;55.596;13.014;2023-04-07T10:04:32;1.63;;;0.65;;
75766;SDS011;64378;55.596;13.014;2023-04-07T10:06:58;2.17;;;0.60;;
75766;SDS011;64378;55.596;13.014;2023-04-07T10:09:25;1.60;;;0.60;;
75766;SDS011;64378;55.596;13.014;2023-04-07T10:11:52;2.13;;;0.65;;
75766;SDS011;64378;55.596;13.014;2023-04-07T10:14:19;2.55;;;0.63;;
75766;SDS011;64378;55.596;13.014;2023-04-07T10:16:47;1.80;;;0.63;;
75766;SDS011;64378;55.596;13.014;2023-04-07T10:19:13;1.63;;;0.65;;
75766;SDS011;64378;55.596;13.014;2023-04-07T10:21:39;1.50;;;0.60;;
75766;SDS011;64378;55.596;13.014;2023-04-07T10:24:14;3.00;;;0.73;;
75766;SDS011;64378;55.596;13.014;2023-04-07T10:26:53;1.73;;;0.60;;
75766;SDS011;64378;55.596;13.014;2023-04-07T10:29:22;2.55;;;0.80;;
75766;SDS011;64378;55.596;13.014;2023-04-07T10:31:48;2.30;;;0.70;;
75766;SDS011;64378;55.596;13.014;2023-04-07T10:34:15;2.47;;;0.70;;
75766;SDS011;64378;55.596;13.014;2023-04-07T10:37:07;2.03;;;0.60;;
75766;SDS011;64378;55.596;13.014;2023-04-07T10:39:34;1.80;;;0.55;;
75766;SDS011;64378;55.596;13.014;2023-04-07T10:42:01;1.88;;;0.70;;
75766;SDS011;64378;55.596;13.014;2023-04-07T10:47:06;1.92;;;0.60;;
75766;SDS011;64378;55.596;13.014;2023-04-07T10:49:32;2.17;;;0.70;;
75766;SDS011;64378;55.596;13.014;2023-04-07T11:00:40;1.40;;;0.50;;
75766;SDS011;64378;55.596;13.014;2023-04-07T11:03:10;1.67;;;0.60;;
75766;SDS011;64378;55.596;13.014;2023-04-07T11:05:39;2.60;;;0.70;;
75766;SDS011;64378;55.596;13.014;2023-04-07T11:08:05;2.70;;;0.60;;
75766;SDS011;64378;55.596;13.014;2023-04-07T11:10:31;2.07;;;0.50;;
75766;SDS011;64378;55.596;13.014;2023-04-07T11:13:01;1.77;;;0.60;;
75766;SDS011;64378;55.596;13.014;2023-04-07T11:15:28;2.03;;;0.60;;
75766;SDS011;64378;55.596;13.014;2023-04-07T11:18:13;2.07;;;0.60;;
75766;SDS011;64378;55.596;13.014;2023-04-07T11:20:45;2.33;;;0.70;;
75766;SDS011;64378;55.596;13.014;2023-04-07T11:23:15;1.80;;;0.63;;
75766;SDS011;64378;55.596;13.014;2023-04-07T11:25:43;1.35;;;0.60;;
75766;SDS011;64378;55.596;13.014;2023-04-07T11:28:10;1.45;;;0.50;;
75766;SDS011;64378;55.596;13.014;2023-04-07T11:30:37;2.47;;;0.70;;
75766;SDS011;64378;55.596;13.014;2023-04-07T11:33:03;3.00;;;0.67;;
75766;SDS011;64378;55.596;13.014;2023-04-07T11:35:29;2.30;;;0.60;;
75766;SDS011;64378;55.596;13.014;2023-04-07T11:37:58;2.60;;;0.70;;
75766;SDS011;64378;55.596;13.014;2023-04-07T11:40:31;1.90;;;0.68;;
75766;SDS011;64378;55.596;13.014;2023-04-07T11:43:01;2.00;;;0.60;;
75766;SDS011;64378;55.596;13.014;2023-04-07T11:45:39;1.92;;;0.60;;
75766;SDS011;64378;55.596;13.014;2023-04-07T11:48:04;1.98;;;0.60;;
75766;SDS011;64378;55.596;13.014;2023-04-07T11:50:49;1.98;;;0.60;;
75766;SDS011;64378;55.596;13.014;2023-04-07T11:53:23;2.70;;;0.70;;
75766;SDS011;64378;55.596;13.014;2023-04-07T11:56:01;1.90;;;0.60;;
75766;SDS011;64378;55.596;13.014;2023-04-07T11:58:31;1.23;;;0.60;;
75766;SDS011;64378;55.596;13.014;2023-04-07T12:00:57;1.67;;;0.50;;
75766;SDS011;64378;55.596;13.014;2023-04-07T12:03:28;1.75;;;0.60;;
75766;SDS011;64378;55.596;13.014;2023-04-07T12:05:54;2.37;;;0.57;;
75766;SDS011;64378;55.596;13.014;2023-04-07T12:08:20;1.92;;;0.60;;
75766;SDS011;64378;55.596;13.014;2023-04-07T12:10:45;1.90;;;0.60;;
75766;SDS011;64378;55.596;13.014;2023-04-07T12:13:12;1.90;;;0.63;;
75766;SDS011;64378;55.596;13.014;2023-04-07T12:15:38;2.15;;;0.63;;
75766;SDS011;64378;55.596;13.014;2023-04-07T12:18:03;1.70;;;0.60;;
75766;SDS011;64378;55.596;13.014;2023-04-07T12:20:30;2.05;;;0.57;;
75766;SDS011;64378;55.596;13.014;2023-04-07T12:22:56;2.08;;;0.60;;
75766;SDS011;64378;55.596;13.014;2023-04-07T12:25:22;1.58;;;0.60;;
75766;SDS011;64378;55.596;13.014;2023-04-07T12:27:48;1.95;;;0.60;;
75766;SDS011;64378;55.596;13.014;2023-04-07T12:30:13;2.27;;;0.60;;
75766;SDS011;64378;55.596;13.014;2023-04-07T12:32:38;2.00;;;0.70;;
75766;SDS011;64378;55.596;13.014;2023-04-07T12:35:04;1.57;;;0.60;;
75766;SDS011;64378;55.596;13.014;2023-04-07T12:37:30;2.35;;;0.50;;
75766;SDS011;64378;55.596;13.014;2023-04-07T12:39:56;2.60;;;0.60;;
75766;SDS011;64378;55.596;13.014;2023-04-07T12:42:22;2.05;;;0.75;;
75766;SDS011;64378;55.596;13.014;2023-04-07T12:44:48;1.97;;;0.60;;
75766;SDS011;64378;55.596;13.014;2023-04-07T12:47:13;1.60;;;0.60;;
75766;SDS011;64378;55.596;13.014;2023-04-07T12:49:39;1.83;;;0.60;;
75766;SDS011;64378;55.596;13.014;2023-04-07T12:52:04;1.60;;;0.60;;
75766;SDS011;64378;55.596;13.014;2023-04-07T12:54:30;2.03;;;0.60;;
75766;SDS011;64378;55.596;13.014;2023-04-07T12:56:56;2.25;;;0.50;;
75766;SDS011;64378;55.596;13.014;2023-04-07T12:59:22;2.28;;;0.70;;
75766;SDS011;64378;55.596;13.014;2023-04-07T13:01:48;2.50;;;0.60;;
75766;SDS011;64378;55.596;13.014;2023-04-07T13:04:14;1.60;;;0.60;;
75766;SDS011;64378;55.596;13.014;2023-04-07T13:06:39;1.47;;;0.60;;
75766;SDS011;64378;55.596;13.014;2023-04-07T13:09:05;2.27;;;0.60;;
75766;SDS011;64378;55.596;13.014;2023-04-07T13:11:30;1.30;;;0.57;;
75766;SDS011;64378;55.596;13.014;2023-04-07T13:13:56;1.58;;;0.60;;
75766;SDS011;64378;55.596;13.014;2023-04-07T13:16:21;2.42;;;0.70;;
75766;SDS011;64378;55.596;13.014;2023-04-07T13:18:46;1.67;;;0.60;;
75766;SDS011;64378;55.596;13.014;2023-04-07T13:21:12;1.63;;;0.60;;
75766;SDS011;64378;55.596;13.014;2023-04-07T13:23:37;1.40;;;0.60;;
75766;SDS011;64378;55.596;13.014;2023-04-07T13:26:02;1.73;;;0.60;;
75766;SDS011;64378;55.596;13.014;2023-04-07T13:28:28;1.27;;;0.50;;
75766;SDS011;64378;55.596;13.014;2023-04-07T13:30:53;1.80;;;0.60;;
75766;SDS011;64378;55.596;13.014;2023-04-07T13:33:19;2.27;;;0.67;;
75766;SDS011;64378;55.596;13.014;2023-04-07T13:35:45;1.50;;;0.50;;
75766;SDS011;64378;55.596;13.014;2023-04-07T13:38:10;2.17;;;0.70;;
75766;SDS011;64378;55.596;13.014;2023-04-07T13:40:35;1.87;;;0.67;;
75766;SDS011;64378;55.596;13.014;2023-04-07T13:43:01;1.73;;;0.70;;
75766;SDS011;64378;55.596;13.014;2023-04-07T13:45:26;1.25;;;0.50;;
75766;SDS011;64378;55.596;13.014;2023-04-07T13:47:52;1.80;;;0.60;;
75766;SDS011;64378;55.596;13.014;2023-04-07T13:50:17;2.47;;;0.70;;
75766;SDS011;64378;55.596;13.014;2023-04-07T13:52:43;1.80;;;0.60;;
75766;SDS011;64378;55.596;13.014;2023-04-07T13:55:08;1.90;;;0.70;;
75766;SDS011;64378;55.596;13.014;2023-04-07T13:57:33;1.83;;;0.77;;
75766;SDS011;64378;55.596;13.014;2023-04-07T13:59:59;2.00;;;0.60;;
75766;SDS011;64378;55.596;13.014;2023-04-07T14:02:24;2.58;;;0.80;;
75766;SDS011;64378;55.596;13.014;2023-04-07T14:04:52;2.30;;;0.80;;
75766;SDS011;64378;55.596;13.014;2023-04-07T14:07:17;1.80;;;0.70;;
75766;SDS011;64378;55.596;13.014;2023-04-07T14:09:43;2.03;;;0.70;;
75766;SDS011;64378;55.596;13.014;2023-04-07T14:12:10;1.50;;;0.68;;
75766;SDS011;64378;55.596;13.014;2023-04-07T14:14:35;1.93;;;0.80;;
75766;SDS011;64378;55.596;13.014;2023-04-07T14:17:01;2.40;;;0.80;;
75766;SDS011;64378;55.596;13.014;2023-04-07T14:19:27;2.13;;;0.88;;
75766;SDS011;64378;55.596;13.014;2023-04-07T14:21:53;2.20;;;0.70;;
75766;SDS011;64378;55.596;13.014;2023-04-07T14:24:19;2.00;;;0.70;;
75766;SDS011;64378;55.596;13.014;2023-04-07T14:26:45;2.27;;;0.63;;
75766;SDS011;64378;55.596;13.014;2023-04-07T14:29:10;2.08;;;0.70;;
75766;SDS011;64378;55.596;13.014;2023-04-07T14:31:37;1.58;;;0.57;;
75766;SDS011;64378;55.596;13.014;2023-04-07T14:34:02;2.70;;;0.67;;
75766;SDS011;64378;55.596;13.014;2023-04-07T14:36:29;1.48;;;0.60;;
75766;SDS011;64378;55.596;13.014;2023-04-07T14:38:55;2.05;;;0.80;;
75766;SDS011;64378;55.596;13.014;2023-04-07T14:41:21;2.00;;;0.75;;
75766;SDS011;64378;55.596;13.014;2023-04-07T14:43:47;2.23;;;0.80;;
75766;SDS011;64378;55.596;13.014;2023-04-07T14:46:14;2.45;;;0.90;;
75766;SDS011;64378;55.596;13.014;2023-04-07T14:48:40;3.03;;;0.80;;